createdAt,value
2018-02-15T00:02:08.802Z,2.00
2018-02-15T00:04:35.761Z,2.10
2018-02-15T00:07:01.978Z,2.10
2018-02-15T00:09:28.174Z,2.00
2018-02-15T00:11:55.101Z,2.10
2018-02-15T00:14:22.752Z,2.00
2018-02-15T00:16:48.941Z,2.20
2018-02-15T00:19:15.156Z,1.90
2018-02-15T00:21:42.105Z,1.90
2018-02-15T00:24:08.282Z,2.10
2018-02-15T00:26:34.510Z,1.90
2018-02-15T00:29:01.459Z,1.90
2018-02-15T00:31:27.976Z,1.90
2018-02-15T00:33:54.926Z,1.90
2018-02-15T00:36:21.113Z,1.90
2018-02-15T00:38:48.007Z,1.90
2018-02-15T00:41:14.253Z,1.90
2018-02-15T00:43:40.432Z,1.90
2018-02-15T00:46:07.363Z,1.90
2018-02-15T00:48:34.661Z,1.90
2018-02-15T00:51:00.833Z,1.90
2018-02-15T00:53:27.769Z,1.90
2018-02-15T00:55:53.934Z,1.20
2018-02-15T00:58:20.126Z,2.00
2018-02-15T01:00:47.038Z,2.00
2018-02-15T01:03:13.209Z,2.00
2018-02-15T01:05:40.171Z,1.90
2018-02-15T01:08:06.450Z,1.90
2018-02-15T01:10:33.388Z,2.00
2018-02-15T01:12:59.581Z,2.00
2018-02-15T01:15:25.771Z,2.00
2018-02-15T01:17:52.334Z,2.00
2018-02-15T01:20:18.880Z,2.00
2018-02-15T01:22:45.038Z,1.90
2018-02-15T01:25:11.579Z,1.90
2018-02-15T01:27:38.147Z,2.00
2018-02-15T01:30:05.062Z,2.10
2018-02-15T01:32:31.202Z,2.00
2018-02-15T01:34:57.405Z,2.00
2018-02-15T01:37:23.614Z,2.00
2018-02-15T01:39:49.799Z,2.10
2018-02-15T01:42:16.006Z,2.10
2018-02-15T01:44:42.569Z,2.00
2018-02-15T01:47:08.740Z,2.10
2018-02-15T01:49:47.134Z,2.10
2018-02-15T01:52:14.057Z,2.10
2018-02-15T01:54:40.231Z,2.00
2018-02-15T01:57:06.416Z,2.00
2018-02-15T01:59:33.372Z,2.10
2018-02-15T02:02:00.329Z,2.10
2018-02-15T02:04:26.612Z,2.20
2018-02-15T02:06:52.783Z,2.10
2018-02-15T02:11:46.874Z,2.10
2018-02-15T02:14:13.809Z,2.00
2018-02-15T02:16:40.730Z,2.00
2018-02-15T02:19:06.952Z,2.00
2018-02-15T02:21:33.100Z,2.00
2018-02-15T02:23:59.317Z,2.00
2018-02-15T02:26:25.968Z,2.00
2018-02-15T02:28:52.119Z,2.00
2018-02-15T02:31:19.044Z,2.00
2018-02-15T02:33:45.208Z,2.00
2018-02-15T02:36:11.405Z,2.00
2018-02-15T02:38:38.368Z,2.00
2018-02-15T02:41:04.904Z,2.00
2018-02-15T02:43:31.815Z,2.10
2018-02-15T02:45:58.005Z,2.10
2018-02-15T02:48:24.154Z,2.10
2018-02-15T02:50:50.328Z,2.10
2018-02-15T02:53:17.274Z,2.10
2018-02-15T02:55:44.222Z,2.00
2018-02-15T02:58:11.123Z,2.00
2018-02-15T03:00:37.304Z,2.00
2018-02-15T03:03:03.482Z,2.00
2018-02-15T03:05:30.065Z,2.00
2018-02-15T03:07:56.980Z,2.00
2018-02-15T03:10:23.147Z,2.00
2018-02-15T03:12:49.407Z,1.90
2018-02-15T03:15:15.601Z,2.00
2018-02-15T03:17:41.748Z,2.00
2018-02-15T03:20:07.916Z,2.00
2018-02-15T03:22:34.092Z,2.00
2018-02-15T03:25:00.239Z,2.00
2018-02-15T03:27:26.417Z,2.00
2018-02-15T03:29:53.366Z,2.00
2018-02-15T03:32:20.354Z,2.00
2018-02-15T03:34:46.531Z,2.00
2018-02-15T03:37:12.720Z,2.00
2018-02-15T03:39:38.883Z,2.10
2018-02-15T03:42:05.081Z,2.10
2018-02-15T03:44:31.271Z,2.10
2018-02-15T03:46:57.423Z,2.10
2018-02-15T03:49:23.630Z,2.10
2018-02-15T03:51:49.810Z,2.10
2018-02-15T03:54:15.996Z,2.20
2018-02-15T03:56:42.157Z,2.20
2018-02-15T03:59:08.304Z,2.10
2018-02-15T04:01:34.461Z,2.10
2018-02-15T04:04:01.058Z,2.20
2018-02-15T04:06:27.337Z,2.20
2018-02-15T04:08:53.551Z,2.30
2018-02-15T04:11:20.469Z,2.30
2018-02-15T04:13:46.788Z,2.30
2018-02-15T04:16:13.007Z,2.30
2018-02-15T04:18:39.183Z,2.30
2018-02-15T04:21:06.112Z,2.30
2018-02-15T04:23:32.426Z,2.30
2018-02-15T04:25:58.610Z,2.30
2018-02-15T04:28:24.796Z,2.20
2018-02-15T04:30:50.930Z,2.30
2018-02-15T04:33:17.073Z,2.30
2018-02-15T04:35:43.645Z,2.40
2018-02-15T04:38:10.180Z,2.30
2018-02-15T04:40:36.362Z,2.30
2018-02-15T04:43:03.312Z,2.40
2018-02-15T04:45:29.896Z,2.40
2018-02-15T04:47:56.798Z,2.40
2018-02-15T04:50:23.715Z,2.50
2018-02-15T04:52:50.649Z,2.50
2018-02-15T04:55:16.850Z,2.50
2018-02-15T04:57:43.050Z,2.40
2018-02-15T05:00:09.986Z,2.50
2018-02-15T05:02:36.548Z,2.40
2018-02-15T05:05:02.805Z,2.40
2018-02-15T05:07:29.379Z,2.30
2018-02-15T05:09:56.329Z,2.30
2018-02-15T05:12:23.255Z,2.30
2018-02-15T05:14:49.838Z,2.30
2018-02-15T05:17:16.010Z,2.30
2018-02-15T05:19:42.244Z,2.30
2018-02-15T05:22:08.426Z,2.30
2018-02-15T05:24:34.592Z,2.40
2018-02-15T05:27:00.874Z,2.30
2018-02-15T05:31:56.529Z,2.30
2018-02-15T05:34:23.728Z,2.40
2018-02-15T05:36:50.025Z,2.30
2018-02-15T05:39:16.220Z,2.30
2018-02-15T05:41:42.605Z,2.30
2018-02-15T05:44:08.900Z,2.20
2018-02-15T05:46:35.124Z,2.30
2018-02-15T05:49:01.369Z,2.20
2018-02-15T05:51:27.675Z,2.30
2018-02-15T05:53:53.939Z,2.30
2018-02-15T05:56:20.881Z,2.40
2018-02-15T05:58:47.259Z,2.40
2018-02-15T06:01:13.502Z,2.40
2018-02-15T06:03:42.117Z,2.40
2018-02-15T06:06:08.628Z,2.40
2018-02-15T06:08:35.284Z,2.40
2018-02-15T06:11:01.519Z,2.40
2018-02-15T06:13:28.768Z,2.40
2018-02-15T06:15:56.113Z,2.40
2018-02-15T06:18:22.364Z,2.40
2018-02-15T06:20:48.785Z,2.40
2018-02-15T06:23:15.041Z,2.30
2018-02-15T06:25:41.564Z,2.30
2018-02-15T06:28:08.145Z,2.30
2018-02-15T06:30:34.510Z,2.30
2018-02-15T06:33:01.766Z,2.30
2018-02-15T06:35:28.000Z,2.30
2018-02-15T06:37:54.216Z,2.20
2018-02-15T06:40:20.498Z,2.30
2018-02-15T06:42:46.885Z,2.40
2018-02-15T06:45:13.083Z,2.20
2018-02-15T06:47:39.381Z,2.30
2018-02-15T06:50:05.565Z,2.20
2018-02-15T06:52:32.510Z,2.00
2018-02-15T06:54:59.489Z,2.00
2018-02-15T06:57:26.041Z,1.90
2018-02-15T06:59:52.231Z,1.90
2018-02-15T07:02:18.407Z,1.80
2018-02-15T07:04:44.624Z,1.70
2018-02-15T07:07:10.832Z,1.60
2018-02-15T07:09:37.017Z,1.50
2018-02-15T07:12:03.956Z,1.40
2018-02-15T07:14:30.180Z,1.30
2018-02-15T07:16:56.776Z,1.60
2018-02-15T07:19:22.949Z,1.70
2018-02-15T07:21:49.840Z,1.60
2018-02-15T07:24:16.014Z,1.60
2018-02-15T07:26:42.266Z,1.50
2018-02-15T07:29:09.195Z,1.40
2018-02-15T07:31:35.396Z,1.40
2018-02-15T07:34:01.576Z,1.40
2018-02-15T07:36:28.581Z,1.40
2018-02-15T07:38:55.119Z,1.30
2018-02-15T07:41:21.648Z,1.30
2018-02-15T07:43:47.898Z,1.40
2018-02-15T07:46:14.062Z,1.30
2018-02-15T07:48:40.975Z,1.30
2018-02-15T07:51:07.201Z,1.20
2018-02-15T07:53:33.410Z,1.10
2018-02-15T07:55:59.644Z,1.10
2018-02-15T07:58:25.841Z,1.10
2018-02-15T08:00:52.015Z,1.10
2018-02-15T08:03:18.186Z,1.10
2018-02-15T08:05:44.389Z,1.20
2018-02-15T08:08:11.319Z,1.30
2018-02-15T08:10:37.497Z,1.20
2018-02-15T08:13:03.687Z,1.30
2018-02-15T08:15:30.615Z,1.30
2018-02-15T08:17:56.759Z,1.10
2018-02-15T08:20:23.717Z,1.20
2018-02-15T08:22:49.939Z,1.20
2018-02-15T08:25:16.814Z,1.20
2018-02-15T08:27:42.980Z,1.50
2018-02-15T08:30:09.172Z,2.10
2018-02-15T08:32:35.460Z,2.00
2018-02-15T08:35:02.378Z,1.70
2018-02-15T08:37:28.580Z,1.50
2018-02-15T08:39:54.813Z,1.40
2018-02-15T08:42:21.394Z,1.20
2018-02-15T08:44:47.951Z,1.30
2018-02-15T08:47:14.897Z,1.30
2018-02-15T08:49:41.829Z,1.30
2018-02-15T08:52:08.758Z,1.40
2018-02-15T08:54:35.695Z,1.40
2018-02-15T08:57:01.869Z,1.40
2018-02-15T08:59:28.786Z,1.40
2018-02-15T09:01:55.722Z,1.40
2018-02-15T09:04:22.634Z,1.40
2018-02-15T09:06:48.831Z,1.30
2018-02-15T09:09:15.793Z,1.30
2018-02-15T09:11:42.332Z,1.30
2018-02-15T09:14:08.866Z,1.30
2018-02-15T09:16:35.072Z,1.30
2018-02-15T09:19:02.815Z,1.30
2018-02-15T09:21:29.021Z,1.30
2018-02-15T09:23:55.582Z,1.40
2018-02-15T09:26:22.553Z,1.40
2018-02-15T09:28:49.129Z,1.40
2018-02-15T09:31:15.538Z,1.40
2018-02-15T09:33:41.744Z,1.50
2018-02-15T09:36:08.638Z,1.40
2018-02-15T09:38:34.811Z,1.50
2018-02-15T09:41:01.800Z,1.60
2018-02-15T09:43:27.979Z,1.60
2018-02-15T09:45:54.205Z,1.60
2018-02-15T09:48:20.754Z,1.50
2018-02-15T09:50:47.714Z,1.60
2018-02-15T09:53:14.632Z,1.70
2018-02-15T09:55:40.834Z,1.70
2018-02-15T09:58:06.983Z,1.70
2018-02-15T10:00:33.170Z,1.70
2018-02-15T10:02:59.417Z,1.70
2018-02-15T10:05:25.626Z,1.70
2018-02-15T10:07:51.839Z,1.70
2018-02-15T10:10:18.431Z,1.80
2018-02-15T10:12:44.981Z,1.80
2018-02-15T10:15:11.519Z,1.80
2018-02-15T10:17:38.432Z,1.80
2018-02-15T10:20:04.592Z,1.70
2018-02-15T10:22:31.568Z,1.60
2018-02-15T10:24:58.133Z,1.70
2018-02-15T10:27:25.385Z,2.00
2018-02-15T10:29:51.716Z,2.40
2018-02-15T10:32:17.909Z,2.40
2018-02-15T10:34:44.096Z,2.30
2018-02-15T10:37:10.274Z,2.50
2018-02-15T10:39:36.482Z,2.70
2018-02-15T10:42:03.451Z,2.70
2018-02-15T10:44:29.774Z,2.60
2018-02-15T10:46:55.962Z,2.60
2018-02-15T10:49:22.268Z,2.40
2018-02-15T10:51:48.438Z,2.30
2018-02-15T10:54:15.397Z,2.20
2018-02-15T10:56:42.388Z,2.20
2018-02-15T10:59:08.593Z,2.00
2018-02-15T11:01:40.874Z,2.00
2018-02-15T11:04:13.280Z,1.90
2018-02-15T11:06:39.469Z,2.00
2018-02-15T11:09:05.762Z,2.00
2018-02-15T11:11:32.713Z,2.00
2018-02-15T11:13:59.623Z,2.00
2018-02-15T11:16:25.801Z,2.10
2018-02-15T11:18:52.756Z,2.10
2018-02-15T11:21:18.941Z,2.10
2018-02-15T11:23:45.117Z,2.30
2018-02-15T11:26:11.345Z,2.20
2018-02-15T11:28:37.529Z,2.20
2018-02-15T11:31:05.239Z,2.20
2018-02-15T11:33:31.471Z,2.20
2018-02-15T11:36:00.134Z,2.20
2018-02-15T11:38:27.095Z,2.10
2018-02-15T11:40:53.336Z,2.10
2018-02-15T11:43:20.630Z,2.10
2018-02-15T11:45:47.063Z,2.20
2018-02-15T11:48:13.302Z,2.20
2018-02-15T11:50:39.629Z,2.20
2018-02-15T11:53:05.833Z,2.20
2018-02-15T11:55:32.160Z,2.20
2018-02-15T11:57:58.458Z,2.30
2018-02-15T12:00:24.807Z,2.20
2018-02-15T12:02:51.839Z,2.30
2018-02-15T12:05:19.031Z,2.30
2018-02-15T12:07:45.265Z,2.40
2018-02-15T12:10:11.527Z,2.40
2018-02-15T12:12:38.489Z,2.40
2018-02-15T12:15:05.445Z,2.40
2018-02-15T12:17:32.732Z,2.30
2018-02-15T12:19:59.039Z,2.30
2018-02-15T12:22:25.318Z,2.30
2018-02-15T12:24:51.525Z,2.30
2018-02-15T12:27:17.738Z,2.30
2018-02-15T12:29:43.970Z,2.30
2018-02-15T12:32:10.263Z,2.30
2018-02-15T12:34:37.184Z,2.40
2018-02-15T12:37:04.182Z,2.40
2018-02-15T12:39:30.423Z,2.40
2018-02-15T12:41:57.816Z,2.40
2018-02-15T12:44:24.068Z,2.50
2018-02-15T12:46:51.158Z,2.40
2018-02-15T12:51:47.791Z,2.50
2018-02-15T12:54:14.494Z,2.50
2018-02-15T12:56:40.898Z,2.40
2018-02-15T12:59:07.186Z,2.40
2018-02-15T13:01:48.323Z,2.40
2018-02-15T13:04:15.983Z,2.40
2018-02-15T13:06:42.206Z,2.40
2018-02-15T13:09:08.411Z,2.40
2018-02-15T13:11:34.643Z,2.40
2018-02-15T13:14:00.855Z,2.40
2018-02-15T13:16:39.303Z,2.70
2018-02-15T13:19:17.887Z,2.80
2018-02-15T13:21:44.068Z,3.20
2018-02-15T13:24:10.306Z,3.30
2018-02-15T13:26:36.551Z,3.20
2018-02-15T13:29:03.486Z,3.30
2018-02-15T13:31:29.722Z,3.20
2018-02-15T13:33:56.662Z,3.10
2018-02-15T13:36:23.087Z,3.00
2018-02-15T13:38:49.296Z,2.90
2018-02-15T13:41:15.502Z,2.80
2018-02-15T13:43:41.738Z,2.70
2018-02-15T13:46:07.970Z,2.70
2018-02-15T13:48:34.188Z,2.70
2018-02-15T13:51:00.499Z,2.60
2018-02-15T13:53:26.687Z,2.60
2018-02-15T13:55:52.918Z,2.70
2018-02-15T13:58:19.105Z,2.70
2018-02-15T14:00:45.290Z,2.80
2018-02-15T14:03:12.228Z,2.60
2018-02-15T14:05:38.426Z,2.60
2018-02-15T14:08:04.611Z,2.60
2018-02-15T14:10:30.903Z,2.60
2018-02-15T14:12:57.107Z,2.80
2018-02-15T14:15:23.281Z,2.80
2018-02-15T14:17:49.883Z,2.80
2018-02-15T14:20:16.085Z,2.80
2018-02-15T14:22:42.308Z,2.70
2018-02-15T14:25:08.515Z,2.60
2018-02-15T14:27:35.442Z,2.60
2018-02-15T14:30:01.636Z,2.60
2018-02-15T14:32:27.822Z,2.70
2018-02-15T14:34:54.021Z,2.70
2018-02-15T14:37:20.220Z,2.70
2018-02-15T14:39:46.387Z,2.70
2018-02-15T14:42:13.317Z,2.60
2018-02-15T14:44:39.544Z,2.60
2018-02-15T14:47:05.724Z,2.70
2018-02-15T14:49:31.952Z,2.80
2018-02-15T14:51:58.116Z,2.70
2018-02-15T14:54:24.727Z,2.80
2018-02-15T14:56:50.892Z,2.70
2018-02-15T14:59:17.540Z,2.70
2018-02-15T15:01:45.555Z,2.70
2018-02-15T15:04:11.700Z,2.70
2018-02-15T15:06:37.943Z,2.70
2018-02-15T15:09:04.150Z,2.60
2018-02-15T15:11:30.374Z,2.50
2018-02-15T15:13:56.565Z,2.50
2018-02-15T15:16:23.474Z,2.50
2018-02-15T15:18:49.660Z,2.70
2018-02-15T15:21:15.805Z,2.60
2018-02-15T15:23:41.991Z,2.60
2018-02-15T15:26:08.946Z,2.60
2018-02-15T15:28:35.202Z,2.60
2018-02-15T15:31:01.380Z,2.60
2018-02-15T15:33:30.363Z,2.50
2018-02-15T15:35:56.667Z,2.40
2018-02-15T15:38:22.862Z,2.30
2018-02-15T15:40:49.773Z,2.30
2018-02-15T15:43:15.957Z,2.30
2018-02-15T15:45:42.162Z,2.30
2018-02-15T15:48:08.403Z,2.30
2018-02-15T15:50:34.612Z,2.40
2018-02-15T15:53:01.582Z,2.50
2018-02-15T15:55:28.492Z,2.50
2018-02-15T15:57:55.446Z,2.40
2018-02-15T16:00:22.396Z,2.40
2018-02-15T16:02:48.962Z,2.30
2018-02-15T16:05:15.208Z,2.40
2018-02-15T16:07:41.462Z,2.40
2018-02-15T16:10:07.702Z,2.40
2018-02-15T16:12:33.902Z,2.40
2018-02-15T16:15:00.051Z,2.30
2018-02-15T16:17:26.283Z,2.30
2018-02-15T16:19:52.505Z,2.30
2018-02-15T16:22:18.698Z,2.30
2018-02-15T16:24:44.899Z,2.40
2018-02-15T16:27:11.629Z,2.40
2018-02-15T16:29:38.584Z,2.40
2018-02-15T16:32:04.821Z,2.40
2018-02-15T16:34:32.534Z,2.50
2018-02-15T16:36:59.088Z,2.50
2018-02-15T16:39:25.745Z,2.50
2018-02-15T16:41:52.327Z,2.60
2018-02-15T16:44:19.245Z,2.60
2018-02-15T16:55:41.432Z,2.80
2018-02-15T16:58:07.999Z,2.80
2018-02-15T17:00:34.337Z,2.80
2018-02-15T17:03:00.779Z,2.80
2018-02-15T17:05:27.738Z,2.80
2018-02-15T17:07:55.468Z,2.80
2018-02-15T17:10:21.751Z,2.80
2018-02-15T17:12:48.426Z,2.80
2018-02-15T17:15:15.241Z,2.80
2018-02-15T17:17:42.255Z,2.80
2018-02-15T17:20:09.243Z,2.80
2018-02-15T17:22:35.558Z,2.80
2018-02-15T17:25:01.906Z,2.80
2018-02-15T17:27:29.786Z,2.70
2018-02-15T17:29:56.440Z,2.80
2018-02-15T17:32:22.635Z,2.80
2018-02-15T17:34:48.882Z,2.80
2018-02-15T17:37:15.882Z,2.80
2018-02-15T17:39:42.978Z,2.80
2018-02-15T17:42:10.719Z,2.80
2018-02-15T17:44:36.931Z,2.80
2018-02-15T17:47:03.618Z,2.80
2018-02-15T17:49:30.635Z,2.80
2018-02-15T17:51:57.281Z,2.70
2018-02-15T17:54:24.026Z,2.70
2018-02-15T17:56:50.281Z,2.70
2018-02-15T17:59:16.581Z,2.80
2018-02-15T18:01:42.926Z,2.80
2018-02-15T18:04:09.193Z,2.80
2018-02-15T18:06:35.485Z,2.80
2018-02-15T18:09:02.113Z,2.80
2018-02-15T18:11:28.352Z,2.80
2018-02-15T18:13:55.411Z,2.80
2018-02-15T18:16:21.674Z,2.90
2018-02-15T18:18:48.672Z,2.80
2018-02-15T18:21:15.729Z,2.80
2018-02-15T18:23:41.930Z,2.90
2018-02-15T18:26:08.565Z,2.80
2018-02-15T18:28:34.919Z,2.80
2018-02-15T18:31:02.219Z,2.80
2018-02-15T18:33:28.575Z,2.80
2018-02-15T18:35:56.435Z,2.90
2018-02-15T18:38:23.693Z,2.90
2018-02-15T18:40:52.787Z,2.80
2018-02-15T18:43:19.757Z,2.80
2018-02-15T18:45:46.999Z,2.90
2018-02-15T18:48:13.216Z,2.90
2018-02-15T18:50:40.275Z,2.90
2018-02-15T18:53:06.527Z,2.90
2018-02-15T18:55:33.851Z,2.90
2018-02-15T18:58:00.481Z,2.90
2018-02-15T19:00:27.441Z,2.90
2018-02-15T19:02:54.109Z,2.90
2018-02-15T19:05:20.556Z,2.90
2018-02-15T19:07:46.809Z,3.00
2018-02-15T19:10:13.454Z,3.00
2018-02-15T19:12:40.407Z,3.00
2018-02-15T19:15:06.720Z,2.90
2018-02-15T19:17:32.956Z,2.90
2018-02-15T19:19:59.510Z,2.90
2018-02-15T19:22:26.106Z,2.90
2018-02-15T19:24:52.310Z,3.00
2018-02-15T19:27:18.609Z,3.00
2018-02-15T19:29:45.589Z,2.90
2018-02-15T19:32:12.532Z,3.00
2018-02-15T19:34:38.858Z,3.00
2018-02-15T19:37:05.018Z,3.00
2018-02-15T19:39:31.238Z,3.00
2018-02-15T19:41:57.438Z,3.00
2018-02-15T19:44:23.847Z,2.90
2018-02-15T19:46:50.423Z,2.80
2018-02-15T19:49:17.733Z,2.90
2018-02-15T19:51:44.684Z,2.90
2018-02-15T19:54:11.363Z,2.80
2018-02-15T19:56:37.611Z,2.80
2018-02-15T19:59:04.204Z,2.70
2018-02-15T20:01:30.414Z,2.70
2018-02-15T20:03:57.377Z,2.70
2018-02-15T20:06:23.658Z,2.60
2018-02-15T20:08:49.899Z,2.60
2018-02-15T20:11:16.197Z,2.60
2018-02-15T20:13:42.410Z,2.70
2018-02-15T20:16:09.024Z,2.70
2018-02-15T20:18:35.982Z,2.60
2018-02-15T20:21:02.938Z,2.60
2018-02-15T20:23:29.176Z,2.70
2018-02-15T20:26:01.983Z,2.70
2018-02-15T20:28:28.269Z,2.80
2018-02-15T20:30:55.431Z,2.80
2018-02-15T20:33:21.710Z,2.80
2018-02-15T20:35:47.927Z,2.90
2018-02-15T20:38:20.118Z,2.90
2018-02-15T20:40:47.160Z,2.90
2018-02-15T20:43:13.439Z,2.80
2018-02-15T20:45:39.689Z,2.90
2018-02-15T20:48:06.680Z,3.00
2018-02-15T20:50:38.928Z,2.90
2018-02-15T20:53:11.737Z,3.00
2018-02-15T20:55:43.047Z,2.90
2018-02-15T20:58:09.316Z,2.90
2018-02-15T21:00:35.596Z,2.90
2018-02-15T21:03:01.720Z,2.90
2018-02-15T21:05:28.332Z,2.90
2018-02-15T21:07:55.318Z,2.90
2018-02-15T21:10:22.237Z,2.90
2018-02-15T21:12:48.416Z,2.90
2018-02-15T21:15:15.454Z,3.10
2018-02-15T21:17:41.668Z,2.90
2018-02-15T21:20:08.848Z,2.90
2018-02-15T21:22:35.408Z,2.90
2018-02-15T21:25:02.077Z,2.90
2018-02-15T21:27:29.070Z,2.90
2018-02-15T21:29:55.249Z,2.90
2018-02-15T21:32:21.453Z,3.00
2018-02-15T21:34:49.025Z,3.00
2018-02-15T21:37:16.641Z,2.90
2018-02-15T21:39:42.854Z,2.90
2018-02-15T21:42:09.110Z,2.90
2018-02-15T21:44:36.447Z,2.90
2018-02-15T21:47:02.722Z,2.90
2018-02-15T21:49:28.929Z,2.90
2018-02-15T21:51:55.180Z,2.90
2018-02-15T21:54:21.750Z,2.90
2018-02-15T21:56:48.003Z,2.90
2018-02-15T21:59:14.311Z,2.90
2018-02-15T22:01:40.578Z,2.80
2018-02-15T22:04:06.842Z,2.80
2018-02-15T22:06:33.104Z,2.90
2018-02-15T22:09:00.075Z,2.80
2018-02-15T22:11:26.265Z,2.80
2018-02-15T22:13:52.465Z,2.80
2018-02-15T22:16:19.067Z,2.90
2018-02-15T22:18:45.631Z,2.90
2018-02-15T22:21:12.605Z,2.90
2018-02-15T22:23:39.190Z,2.90
2018-02-15T22:26:05.368Z,2.90
2018-02-15T22:28:31.608Z,2.90
2018-02-15T22:30:57.830Z,2.90
2018-02-15T22:33:24.052Z,2.90
2018-02-15T22:35:51.056Z,2.90
2018-02-15T22:38:17.309Z,3.00
2018-02-15T22:40:44.275Z,3.10
2018-02-15T22:43:10.485Z,3.00
2018-02-15T22:45:37.491Z,2.90
2018-02-15T22:48:03.770Z,2.90
2018-02-15T22:50:30.737Z,2.90
2018-02-15T22:52:56.927Z,2.80
2018-02-15T22:55:23.899Z,2.80
2018-02-15T22:57:50.101Z,2.80
2018-02-15T23:00:16.303Z,2.90
2018-02-15T23:02:42.497Z,2.90
2018-02-15T23:05:08.696Z,2.90
2018-02-15T23:07:35.313Z,2.90
2018-02-15T23:10:01.547Z,2.80
2018-02-15T23:12:27.737Z,2.80
2018-02-15T23:14:53.948Z,2.80
2018-02-15T23:17:20.185Z,2.80
2018-02-15T23:19:46.368Z,2.70
2018-02-15T23:22:12.571Z,2.70
2018-02-15T23:24:38.765Z,2.80
2018-02-15T23:27:05.366Z,2.80
2018-02-15T23:29:32.279Z,2.80
2018-02-15T23:31:58.482Z,2.80
2018-02-15T23:34:24.659Z,2.80
2018-02-15T23:36:50.869Z,2.80
2018-02-15T23:39:17.390Z,2.80
2018-02-15T23:41:43.580Z,2.80
2018-02-15T23:44:10.494Z,2.80
2018-02-15T23:46:36.666Z,2.80
2018-02-15T23:49:02.855Z,2.80
2018-02-15T23:51:29.430Z,2.90
2018-02-15T23:53:56.135Z,2.80
2018-02-15T23:56:22.331Z,2.80
2018-02-15T23:58:48.527Z,2.80
